Time;durP1;ratioP1;P1;durP2;ratioP2;P2;SDS_P1;SDS_P2;PMS_P1;PMS_P2;Temp;Humidity;BMP_temperature;BMP_pressure;BME280_temperature;BME280_humidity;BME280_pressure;Samples;Min_cycle;Max_cycle;Signal;HPM_P1;HPM_P2
2021/04/20 00:01:52;;;;;;;3.60;1.27;;;;;;;;;;5018205;28;20033;-58
2021/04/20 00:04:18;;;;;;;4.68;1.42;;;;;;;;;;5019462;28;20135;-58
2021/04/20 00:06:44;;;;;;;3.00;1.27;;;;;;;;;;5019698;28;20041;-55
2021/04/20 00:09:10;;;;;;;3.88;1.25;;;;;;;;;;5019803;28;20095;-56
2021/04/20 00:11:37;;;;;;;3.78;1.30;;;;;;;;;;5019729;28;20402;-58
2021/04/20 00:14:04;;;;;;;6.32;1.08;;;;;;;;;;5020129;28;20108;-56
2021/04/20 00:16:30;;;;;;;6.65;1.83;;;;;;;;;;5017914;28;20565;-57
2021/04/20 00:18:56;;;;;;;5.50;1.00;;;;;;;;;;5019817;28;20811;-58
2021/04/20 00:21:22;;;;;;;2.97;1.00;;;;;;;;;;5017520;28;20706;-57
2021/04/20 00:23:48;;;;;;;4.25;1.45;;;;;;;;;;5019702;28;20052;-55
2021/04/20 00:26:14;;;;;;;3.08;1.00;;;;;;;;;;5019970;28;20048;-54
2021/04/20 00:28:40;;;;;;;3.97;0.98;;;;;;;;;;5012701;28;20055;-55
2021/04/20 00:31:06;;;;;;;2.42;1.00;;;;;;;;;;5031901;28;20038;-57
2021/04/20 00:33:31;;;;;;;3.83;1.70;;;;;;;;;;5020131;28;20042;-58
2021/04/20 00:35:57;;;;;;;5.35;1.60;;;;;;;;;;5020385;28;20048;-57
2021/04/20 00:38:23;;;;;;;4.95;1.50;;;;;;;;;;5019135;28;20049;-57
2021/04/20 00:40:49;;;;;;;4.32;1.13;;;;;;;;;;5019542;28;20057;-55
2021/04/20 00:43:15;;;;;;;2.60;0.90;;;;;;;;;;5020481;28;20061;-56
2021/04/20 00:45:43;;;;;;;3.50;1.00;;;;;;;;;;5006920;28;20053;-56
2021/04/20 00:48:09;;;;;;;2.13;0.85;;;;;;;;;;5019413;28;20486;-54
2021/04/20 00:50:39;;;;;;;3.00;0.98;;;;;;;;;;5016842;28;20052;-56
2021/04/20 00:53:07;;;;;;;3.65;1.17;;;;;;;;;;5020084;28;20578;-57
2021/04/20 00:55:34;;;;;;;3.10;0.88;;;;;;;;;;5021459;28;20157;-56
2021/04/20 00:58:00;;;;;;;3.33;1.08;;;;;;;;;;5030926;28;20041;-57
2021/04/20 01:00:27;;;;;;;3.35;1.02;;;;;;;;;;5016249;28;20044;-56
2021/04/20 01:02:53;;;;;;;3.72;1.17;;;;;;;;;;5019229;28;20124;-57
2021/04/20 01:05:21;;;;;;;5.32;1.20;;;;;;;;;;5016982;28;20049;-56
2021/04/20 01:07:48;;;;;;;4.38;1.23;;;;;;;;;;5019608;28;20058;-57
2021/04/20 01:10:14;;;;;;;3.42;1.23;;;;;;;;;;5017377;28;20189;-56
2021/04/20 01:12:41;;;;;;;3.33;1.15;;;;;;;;;;5018447;28;20044;-56
2021/04/20 01:15:08;;;;;;;4.80;1.30;;;;;;;;;;5018191;28;20141;-56
2021/04/20 01:17:34;;;;;;;4.35;1.00;;;;;;;;;;5032183;28;20095;-55
2021/04/20 01:20:01;;;;;;;3.35;1.30;;;;;;;;;;5018906;28;20127;-56
2021/04/20 01:22:32;;;;;;;3.03;1.02;;;;;;;;;;5017252;28;20596;-57
2021/04/20 01:24:58;;;;;;;3.20;1.08;;;;;;;;;;5019827;28;20058;-54
2021/04/20 01:27:25;;;;;;;2.40;0.90;;;;;;;;;;5013297;28;20133;-55
2021/04/20 01:29:55;;;;;;;2.50;1.00;;;;;;;;;;5018110;28;20116;-57
2021/04/20 01:32:22;;;;;;;2.25;0.88;;;;;;;;;;5017446;28;20084;-55
2021/04/20 01:34:48;;;;;;;3.10;0.90;;;;;;;;;;5017166;28;20077;-55
2021/04/20 01:37:14;;;;;;;4.50;1.40;;;;;;;;;;5013846;28;20124;-55
2021/04/20 01:39:42;;;;;;;2.97;1.30;;;;;;;;;;5015162;28;20034;-57
2021/04/20 01:42:08;;;;;;;3.40;1.15;;;;;;;;;;5017265;28;20835;-57
2021/04/20 01:44:34;;;;;;;3.55;1.45;;;;;;;;;;5016667;28;20053;-58
2021/04/20 01:47:00;;;;;;;2.70;1.08;;;;;;;;;;5012649;28;20042;-55
2021/04/20 01:49:26;;;;;;;3.00;1.15;;;;;;;;;;5016818;28;20055;-57
2021/04/20 01:51:52;;;;;;;5.40;0.90;;;;;;;;;;5017584;28;20045;-55
2021/04/20 01:54:19;;;;;;;3.33;1.20;;;;;;;;;;5016116;28;20056;-58
2021/04/20 01:56:46;;;;;;;3.33;1.33;;;;;;;;;;5017588;28;20049;-57
2021/04/20 01:59:12;;;;;;;4.75;1.40;;;;;;;;;;5013691;28;20046;-57
2021/04/20 02:01:38;;;;;;;3.00;1.23;;;;;;;;;;5015722;28;20359;-57
2021/04/20 02:04:04;;;;;;;3.22;1.30;;;;;;;;;;5018247;28;20053;-56
2021/04/20 02:06:30;;;;;;;3.25;1.15;;;;;;;;;;5016946;28;20056;-58
2021/04/20 02:08:56;;;;;;;3.38;1.30;;;;;;;;;;5016894;28;20041;-58
2021/04/20 02:11:22;;;;;;;4.90;1.50;;;;;;;;;;5016049;28;20069;-55
2021/04/20 02:13:49;;;;;;;6.60;1.45;;;;;;;;;;5016994;28;20304;-55
2021/04/20 02:16:15;;;;;;;5.97;1.60;;;;;;;;;;5014453;28;20080;-55
2021/04/20 02:18:45;;;;;;;4.15;1.10;;;;;;;;;;5016405;28;20514;-58
2021/04/20 02:21:12;;;;;;;4.93;1.50;;;;;;;;;;5016321;28;20871;-57
2021/04/20 02:23:38;;;;;;;6.05;2.08;;;;;;;;;;5017617;28;20240;-56
2021/04/20 02:26:06;;;;;;;3.85;1.58;;;;;;;;;;5019248;28;20192;-58
2021/04/20 02:28:32;;;;;;;4.03;1.40;;;;;;;;;;5016343;28;20148;-57
2021/04/20 02:31:04;;;;;;;7.50;1.80;;;;;;;;;;5017981;28;20102;-57
2021/04/20 02:33:30;;;;;;;3.63;1.52;;;;;;;;;;5017272;28;20040;-56
2021/04/20 02:35:56;;;;;;;3.72;1.45;;;;;;;;;;5018260;28;20041;-56
2021/04/20 02:38:22;;;;;;;3.50;1.17;;;;;;;;;;5016861;28;20037;-55
2021/04/20 02:40:52;;;;;;;5.95;2.13;;;;;;;;;;5017609;28;20037;-56
2021/04/20 02:43:18;;;;;;;5.38;1.45;;;;;;;;;;5018610;28;20057;-58
2021/04/20 02:45:44;;;;;;;4.68;1.40;;;;;;;;;;5018348;28;20166;-58
2021/04/20 02:48:10;;;;;;;3.75;1.40;;;;;;;;;;5018578;28;20132;-58
2021/04/20 02:50:36;;;;;;;5.45;1.33;;;;;;;;;;5017446;28;20049;-56
2021/04/20 02:53:02;;;;;;;6.20;1.80;;;;;;;;;;5016889;28;20531;-57
2021/04/20 02:55:28;;;;;;;4.97;1.65;;;;;;;;;;5015912;28;20038;-59
2021/04/20 02:57:57;;;;;;;5.40;1.50;;;;;;;;;;5016062;28;20470;-55
2021/04/20 03:00:24;;;;;;;4.57;1.50;;;;;;;;;;5014271;28;20041;-56
2021/04/20 03:02:52;;;;;;;4.78;1.70;;;;;;;;;;5017580;28;20544;-55
2021/04/20 03:05:20;;;;;;;6.00;1.75;;;;;;;;;;5016307;28;20389;-56
2021/04/20 03:07:46;;;;;;;5.88;1.65;;;;;;;;;;5016891;28;20080;-56
2021/04/20 03:10:13;;;;;;;5.32;1.90;;;;;;;;;;5009568;28;20088;-53
2021/04/20 03:12:39;;;;;;;5.28;2.00;;;;;;;;;;5014499;28;20144;-56
2021/04/20 03:15:06;;;;;;;4.45;1.60;;;;;;;;;;5015470;28;20037;-57
2021/04/20 03:17:32;;;;;;;7.38;1.77;;;;;;;;;;5014935;28;20061;-57
2021/04/20 03:19:58;;;;;;;5.05;1.60;;;;;;;;;;5030926;28;20128;-56
2021/04/20 03:22:24;;;;;;;3.85;1.80;;;;;;;;;;5014329;28;20068;-57
2021/04/20 03:24:56;;;;;;;5.80;1.73;;;;;;;;;;5016627;28;20057;-56
2021/04/20 03:27:22;;;;;;;10.98;1.73;;;;;;;;;;5016492;28;20597;-57
2021/04/20 03:29:48;;;;;;;5.78;2.10;;;;;;;;;;5017080;28;20044;-56
2021/04/20 03:32:14;;;;;;;6.72;2.40;;;;;;;;;;5015715;28;20040;-57
2021/04/20 03:34:44;;;;;;;9.40;1.92;;;;;;;;;;5016641;28;20048;-56
2021/04/20 03:37:12;;;;;;;4.72;1.70;;;;;;;;;;5011217;28;20030;-58
2021/04/20 03:39:40;;;;;;;6.93;1.83;;;;;;;;;;5015400;28;20116;-58
2021/04/20 03:42:20;;;;;;;5.00;1.95;;;;;;;;;;5015813;28;20080;-57
2021/04/20 03:44:48;;;;;;;5.50;2.03;;;;;;;;;;5016054;28;20049;-57
2021/04/20 03:47:17;;;;;;;10.50;2.45;;;;;;;;;;5030743;28;20141;-56
2021/04/20 03:49:44;;;;;;;7.68;2.38;;;;;;;;;;5016196;28;20502;-55
2021/04/20 03:52:13;;;;;;;7.63;3.20;;;;;;;;;;5014773;28;20175;-55
2021/04/20 03:54:42;;;;;;;7.70;3.50;;;;;;;;;;5015863;28;20091;-57
2021/04/20 03:57:08;;;;;;;9.48;2.80;;;;;;;;;;5016075;28;20037;-57
2021/04/20 03:59:34;;;;;;;8.55;3.03;;;;;;;;;;5015388;28;20386;-58
2021/04/20 04:02:01;;;;;;;6.85;2.80;;;;;;;;;;5014013;28;20569;-57
2021/04/20 04:04:28;;;;;;;8.93;3.00;;;;;;;;;;5015007;28;20061;-58
2021/04/20 04:06:55;;;;;;;7.18;3.13;;;;;;;;;;5015270;28;20049;-58
2021/04/20 04:09:21;;;;;;;7.63;2.90;;;;;;;;;;5015551;28;20041;-57
2021/04/20 04:12:01;;;;;;;10.25;2.97;;;;;;;;;;5031404;28;20045;-58
2021/04/20 04:14:29;;;;;;;11.02;3.08;;;;;;;;;;5030247;28;20048;-57
2021/04/20 04:17:00;;;;;;;6.45;2.90;;;;;;;;;;5014452;28;20044;-56
2021/04/20 04:19:30;;;;;;;7.78;3.00;;;;;;;;;;5030001;28;20494;-54
2021/04/20 04:22:00;;;;;;;9.85;2.35;;;;;;;;;;5018479;28;20375;-58
2021/04/20 04:24:29;;;;;;;7.03;2.60;;;;;;;;;;5019061;28;20080;-58
2021/04/20 04:26:57;;;;;;;9.00;2.65;;;;;;;;;;5019033;28;20033;-59
2021/04/20 04:29:25;;;;;;;7.30;2.50;;;;;;;;;;5016126;28;20103;-58
2021/04/20 04:31:51;;;;;;;8.93;2.55;;;;;;;;;;5019608;28;20445;-60
2021/04/20 04:34:18;;;;;;;5.50;2.50;;;;;;;;;;5018977;28;20046;-59
2021/04/20 04:36:45;;;;;;;11.20;2.78;;;;;;;;;;5020216;28;20124;-57
2021/04/20 04:39:12;;;;;;;7.35;2.72;;;;;;;;;;5020246;28;20045;-57
2021/04/20 04:41:38;;;;;;;10.18;2.92;;;;;;;;;;5017248;28;20095;-57
2021/04/20 04:44:04;;;;;;;8.10;2.55;;;;;;;;;;5020194;28;20137;-57
2021/04/20 04:46:30;;;;;;;8.80;2.78;;;;;;;;;;5018722;28;20037;-59
2021/04/20 04:48:57;;;;;;;8.95;2.90;;;;;;;;;;5018793;28;20041;-57
2021/04/20 04:51:24;;;;;;;11.35;3.22;;;;;;;;;;5033882;28;20061;-58
2021/04/20 04:53:51;;;;;;;8.85;3.17;;;;;;;;;;5020224;28;20034;-59
2021/04/20 04:56:18;;;;;;;6.70;3.05;;;;;;;;;;5019624;28;20037;-59
2021/04/20 04:58:44;;;;;;;7.82;3.25;;;;;;;;;;5019657;28;20498;-57
2021/04/20 05:01:12;;;;;;;12.48;3.70;;;;;;;;;;5019805;28;20096;-59
2021/04/20 05:03:39;;;;;;;15.02;3.75;;;;;;;;;;5019142;28;20076;-59
2021/04/20 05:06:07;;;;;;;10.48;3.38;;;;;;;;;;5020283;28;20120;-58
2021/04/20 05:08:33;;;;;;;11.30;3.15;;;;;;;;;;5020235;28;20100;-58
2021/04/20 05:11:02;;;;;;;18.13;4.00;;;;;;;;;;5019741;28;20042;-58
2021/04/20 05:13:29;;;;;;;17.85;3.55;;;;;;;;;;5019983;28;20049;-58
2021/04/20 05:15:55;;;;;;;14.18;2.58;;;;;;;;;;5016715;28;20113;-57
2021/04/20 05:18:23;;;;;;;11.57;3.15;;;;;;;;;;5031492;28;20049;-58
2021/04/20 05:20:49;;;;;;;13.45;2.63;;;;;;;;;;5022552;28;20091;-59
2021/04/20 05:23:16;;;;;;;11.02;2.90;;;;;;;;;;5023277;28;20045;-58
2021/04/20 05:25:42;;;;;;;9.80;2.63;;;;;;;;;;5023961;28;20132;-56
2021/04/20 05:28:08;;;;;;;13.32;3.08;;;;;;;;;;5022024;28;20046;-58
2021/04/20 05:30:34;;;;;;;14.73;3.65;;;;;;;;;;5020912;28;20440;-56
2021/04/20 05:33:00;;;;;;;8.88;2.72;;;;;;;;;;5023216;28;20113;-55
2021/04/20 05:35:27;;;;;;;11.77;2.88;;;;;;;;;;5026206;28;20052;-59
2021/04/20 05:37:53;;;;;;;15.70;3.45;;;;;;;;;;5032880;28;20065;-59
2021/04/20 05:40:20;;;;;;;12.38;3.38;;;;;;;;;;5041426;28;20048;-59
2021/04/20 05:42:46;;;;;;;10.90;3.45;;;;;;;;;;5039589;28;20109;-58
2021/04/20 05:45:14;;;;;;;10.63;3.47;;;;;;;;;;5041667;28;20050;-58
2021/04/20 05:47:40;;;;;;;11.57;2.75;;;;;;;;;;5038360;28;20038;-59
2021/04/20 05:50:07;;;;;;;14.60;3.55;;;;;;;;;;5039299;28;20173;-56
2021/04/20 05:52:36;;;;;;;15.30;3.35;;;;;;;;;;5042354;28;20048;-59
2021/04/20 05:55:03;;;;;;;10.68;3.55;;;;;;;;;;5036824;28;20061;-58
2021/04/20 05:57:29;;;;;;;14.57;6.30;;;;;;;;;;5023353;28;20252;-57
2021/04/20 05:59:56;;;;;;;11.43;4.38;;;;;;;;;;5021986;28;20049;-58
2021/04/20 06:02:22;;;;;;;14.10;3.65;;;;;;;;;;5019854;28;20041;-56
2021/04/20 06:04:52;;;;;;;12.68;4.13;;;;;;;;;;5019830;28;20049;-59
2021/04/20 06:07:19;;;;;;;13.70;3.63;;;;;;;;;;5019341;28;20766;-58
2021/04/20 06:09:45;;;;;;;15.85;4.07;;;;;;;;;;5020770;28;20044;-58
2021/04/20 06:12:11;;;;;;;9.30;2.75;;;;;;;;;;5019588;28;20037;-57
2021/04/20 06:14:38;;;;;;;9.43;2.88;;;;;;;;;;5018157;28;20037;-57
2021/04/20 06:17:06;;;;;;;12.18;3.10;;;;;;;;;;5018962;28;20047;-57
2021/04/20 06:19:32;;;;;;;11.20;3.55;;;;;;;;;;5017719;28;20260;-57
2021/04/20 06:21:58;;;;;;;10.75;3.15;;;;;;;;;;5016588;28;22052;-54
2021/04/20 06:24:24;;;;;;;9.50;2.80;;;;;;;;;;5018041;28;20095;-58
2021/04/20 06:26:50;;;;;;;13.88;2.90;;;;;;;;;;5015633;28;20057;-57
2021/04/20 06:29:18;;;;;;;10.38;3.35;;;;;;;;;;5018301;28;20191;-58
2021/04/20 06:31:44;;;;;;;12.20;3.10;;;;;;;;;;5015194;28;20075;-56
2021/04/20 06:34:10;;;;;;;11.15;3.28;;;;;;;;;;5018274;28;20033;-57
2021/04/20 06:36:37;;;;;;;12.27;3.78;;;;;;;;;;5016401;28;20057;-57
2021/04/20 06:39:03;;;;;;;8.55;3.30;;;;;;;;;;5017796;28;20426;-58
2021/04/20 06:41:32;;;;;;;11.73;3.90;;;;;;;;;;5015407;28;20059;-57
2021/04/20 06:44:00;;;;;;;7.75;2.75;;;;;;;;;;5017973;28;20049;-57
2021/04/20 06:46:30;;;;;;;10.88;2.90;;;;;;;;;;5016489;28;20048;-57
2021/04/20 06:49:09;;;;;;;10.73;3.30;;;;;;;;;;5017505;28;20045;-57
2021/04/20 06:51:37;;;;;;;9.85;3.83;;;;;;;;;;5015638;28;20367;-58
2021/04/20 06:54:03;;;;;;;10.63;3.50;;;;;;;;;;5015620;28;20116;-55
2021/04/20 06:56:32;;;;;;;12.48;3.10;;;;;;;;;;5017143;28;20048;-58
2021/04/20 06:59:11;;;;;;;9.25;3.03;;;;;;;;;;5018039;28;20042;-57
2021/04/20 07:01:39;;;;;;;11.02;3.45;;;;;;;;;;5015757;28;20724;-58
2021/04/20 07:04:26;;;;;;;8.95;2.92;;;;;;;;;;5017592;28;20095;-57
2021/04/20 07:07:09;;;;;;;9.23;2.97;;;;;;;;;;5017586;28;20477;-56
2021/04/20 07:09:39;;;;;;;8.35;3.00;;;;;;;;;;5015227;28;20149;-58
2021/04/20 07:12:05;;;;;;;6.80;2.80;;;;;;;;;;5016771;28;20575;-57
2021/04/20 07:14:31;;;;;;;7.80;2.63;;;;;;;;;;5016023;28;20175;-57
2021/04/20 07:17:06;;;;;;;9.57;3.28;;;;;;;;;;5016708;28;20063;-56
2021/04/20 07:19:50;;;;;;;12.13;3.38;;;;;;;;;;5030945;28;20041;-57
2021/04/20 07:22:22;;;;;;;10.35;3.33;;;;;;;;;;5016215;28;20034;-54
2021/04/20 07:25:07;;;;;;;7.72;2.78;;;;;;;;;;5015976;28;20129;-58
2021/04/20 07:27:41;;;;;;;11.07;2.80;;;;;;;;;;5016092;28;20045;-58
2021/04/20 07:30:43;;;;;;;10.10;2.85;;;;;;;;;;5016249;28;20037;-57
2021/04/20 07:33:15;;;;;;;9.80;3.22;;;;;;;;;;4969824;28;20133;-57
2021/04/20 07:35:50;;;;;;;8.38;3.22;;;;;;;;;;5008066;28;20485;-56
2021/04/20 07:38:23;;;;;;;13.70;3.03;;;;;;;;;;5017083;28;20038;-57
2021/04/20 07:40:57;;;;;;;6.22;2.38;;;;;;;;;;5015832;28;20096;-57
2021/04/20 07:43:22;;;;;;;;;;;;;;;;;;5016071;28;20199;-54
2021/04/20 07:45:51;;;;;;;7.95;2.75;;;;;;;;;;5018213;28;20595;-54
2021/04/20 07:48:17;;;;;;;8.38;2.38;;;;;;;;;;5017072;28;20049;-57
2021/04/20 07:50:45;;;;;;;6.63;2.80;;;;;;;;;;5016662;28;20041;-57
2021/04/20 07:53:29;;;;;;;6.90;2.92;;;;;;;;;;5018225;28;20510;-56
2021/04/20 07:56:12;;;;;;;7.25;2.75;;;;;;;;;;5014675;28;20508;-56
2021/04/20 07:58:47;;;;;;;6.85;3.13;;;;;;;;;;5020236;28;20042;-56
2021/04/20 08:01:16;;;;;;;7.50;2.92;;;;;;;;;;5020055;28;20048;-55
2021/04/20 08:03:45;;;;;;;6.88;3.10;;;;;;;;;;5020200;28;20103;-58
2021/04/20 08:06:36;;;;;;;8.40;3.30;;;;;;;;;;5020920;28;20071;-58
2021/04/20 08:09:07;;;;;;;8.32;2.80;;;;;;;;;;5020386;28;20512;-56
2021/04/20 08:11:37;;;;;;;7.30;2.88;;;;;;;;;;5019089;28;20041;-58
2021/04/20 08:14:14;;;;;;;9.35;3.05;;;;;;;;;;5020187;28;20125;-56
2021/04/20 08:16:40;;;;;;;9.05;3.00;;;;;;;;;;5019377;28;20037;-56
2021/04/20 08:19:10;;;;;;;7.15;2.45;;;;;;;;;;5019986;28;20099;-58
2021/04/20 08:21:41;;;;;;;8.43;2.90;;;;;;;;;;5017859;28;20037;-55
2021/04/20 08:24:12;;;;;;;13.82;3.70;;;;;;;;;;5015574;28;20088;-59
2021/04/20 08:26:49;;;;;;;9.60;2.75;;;;;;;;;;5017603;28;20038;-59
2021/04/20 08:29:20;;;;;;;10.52;2.80;;;;;;;;;;5021120;28;20053;-57
2021/04/20 08:31:58;;;;;;;9.15;3.22;;;;;;;;;;5009108;28;20041;-58
2021/04/20 08:34:33;;;;;;;7.45;2.97;;;;;;;;;;5017939;28;21087;-59
2021/04/20 08:37:02;;;;;;;10.35;2.72;;;;;;;;;;5019049;28;20060;-57
2021/04/20 08:39:51;;;;;;;9.23;3.35;;;;;;;;;;5020676;28;20047;-57
2021/04/20 08:42:32;;;;;;;7.75;3.45;;;;;;;;;;5018828;28;20839;-57
2021/04/20 08:45:04;;;;;;;14.43;3.13;;;;;;;;;;5027936;28;20554;-57
2021/04/20 08:47:41;;;;;;;8.55;2.75;;;;;;;;;;5013265;28;20527;-57
2021/04/20 08:50:09;;;;;;;10.48;3.10;;;;;;;;;;5018278;28;20037;-58
2021/04/20 08:52:54;;;;;;;9.65;3.28;;;;;;;;;;5018753;28;20037;-58
2021/04/20 08:55:38;;;;;;;11.75;3.35;;;;;;;;;;5018208;28;20035;-57
2021/04/20 08:58:07;;;;;;;6.82;2.97;;;;;;;;;;5019292;28;20146;-57
2021/04/20 09:00:51;;;;;;;5.95;2.85;;;;;;;;;;5019495;28;20049;-57
2021/04/20 09:03:25;;;;;;;6.15;2.72;;;;;;;;;;5022349;28;20544;-58
2021/04/20 09:05:57;;;;;;;6.82;2.72;;;;;;;;;;5023177;28;20741;-57
2021/04/20 09:08:32;;;;;;;5.90;3.10;;;;;;;;;;5025004;28;20041;-55
2021/04/20 09:11:10;;;;;;;13.13;3.17;;;;;;;;;;5028244;28;20030;-58
2021/04/20 09:13:44;;;;;;;11.60;2.90;;;;;;;;;;5041128;28;20064;-59
2021/04/20 09:16:14;;;;;;;7.93;2.70;;;;;;;;;;5042447;28;20038;-58
2021/04/20 09:18:44;;;;;;;7.75;3.00;;;;;;;;;;5040733;28;20033;-58
2021/04/20 09:21:11;;;;;;;5.78;2.25;;;;;;;;;;5040525;28;20460;-58
2021/04/20 09:24:00;;;;;;;7.05;2.97;;;;;;;;;;5039545;28;20056;-58
2021/04/20 09:26:32;;;;;;;9.65;3.33;;;;;;;;;;5036465;28;20049;-58
2021/04/20 09:28:58;;;;;;;8.60;3.13;;;;;;;;;;5036139;28;20048;-57
2021/04/20 09:31:26;;;;;;;8.05;3.40;;;;;;;;;;5026298;28;20129;-55
2021/04/20 09:33:53;;;;;;;7.13;2.88;;;;;;;;;;5018156;28;20045;-55
2021/04/20 09:36:19;;;;;;;8.20;3.20;;;;;;;;;;5019910;28;20169;-57
2021/04/20 09:38:46;;;;;;;7.82;3.13;;;;;;;;;;5019466;28;20629;-57
2021/04/20 09:41:13;;;;;;;8.15;2.75;;;;;;;;;;5019109;28;20297;-56
2021/04/20 09:43:57;;;;;;;7.85;3.10;;;;;;;;;;5019065;28;21962;-57
2021/04/20 09:46:31;;;;;;;9.82;2.90;;;;;;;;;;5019227;28;20620;-58
2021/04/20 09:49:12;;;;;;;7.57;2.90;;;;;;;;;;5017195;28;20044;-56
2021/04/20 09:51:58;;;;;;;11.25;2.97;;;;;;;;;;5018063;28;20049;-57
2021/04/20 09:54:26;;;;;;;7.18;3.17;;;;;;;;;;5017718;28;20055;-58
2021/04/20 09:56:53;;;;;;;7.03;3.42;;;;;;;;;;5019697;28;20049;-58
2021/04/20 09:59:22;;;;;;;8.95;3.15;;;;;;;;;;5018907;28;20510;-56
2021/04/20 10:01:56;;;;;;;8.95;3.22;;;;;;;;;;5019728;28;20041;-58
2021/04/20 10:04:40;;;;;;;7.95;3.28;;;;;;;;;;5021055;28;20071;-59
2021/04/20 10:07:10;;;;;;;12.25;3.45;;;;;;;;;;5015902;28;20545;-56
2021/04/20 10:09:41;;;;;;;9.23;3.50;;;;;;;;;;5015875;28;20110;-59
2021/04/20 10:12:08;;;;;;;5.90;2.85;;;;;;;;;;5017791;28;20033;-58
2021/04/20 10:14:51;;;;;;;10.88;3.40;;;;;;;;;;5017169;28;20095;-57
2021/04/20 10:17:17;;;;;;;;;;;;;;;;;;5018293;28;20498;-57
2021/04/20 10:19:47;;;;;;;6.47;2.67;;;;;;;;;;5016547;28;19923;-58
2021/04/20 10:22:13;;;;;;;7.07;3.00;;;;;;;;;;5015597;28;20042;-58
2021/04/20 10:24:43;;;;;;;8.48;2.85;;;;;;;;;;5016734;28;20139;-58
2021/04/20 10:27:13;;;;;;;7.47;3.50;;;;;;;;;;5017031;28;20041;-59
2021/04/20 10:29:38;;;;;;;7.93;3.28;;;;;;;;;;5014182;28;20068;-57
2021/04/20 10:32:04;;;;;;;12.05;3.03;;;;;;;;;;5017797;28;20045;-57
2021/04/20 10:34:31;;;;;;;8.05;3.55;;;;;;;;;;5017346;28;20037;-59
2021/04/20 10:36:57;;;;;;;9.23;3.38;;;;;;;;;;5016547;28;20046;-57
2021/04/20 10:39:24;;;;;;;6.55;3.00;;;;;;;;;;5016976;28;20037;-58
2021/04/20 10:41:51;;;;;;;11.65;3.28;;;;;;;;;;5015277;28;20473;-59
2021/04/20 10:44:18;;;;;;;7.82;3.28;;;;;;;;;;5017260;28;20073;-58
2021/04/20 10:46:55;;;;;;;11.00;3.35;;;;;;;;;;5006196;28;20071;-58
2021/04/20 10:49:22;;;;;;;7.63;2.92;;;;;;;;;;5016199;28;20043;-56
2021/04/20 10:51:54;;;;;;;7.38;3.20;;;;;;;;;;5016505;28;20045;-59
2021/04/20 10:54:20;;;;;;;12.20;2.85;;;;;;;;;;5014163;28;20143;-58
2021/04/20 10:56:51;;;;;;;13.73;3.17;;;;;;;;;;5016455;28;20517;-59
2021/04/20 10:59:23;;;;;;;10.43;3.28;;;;;;;;;;5017291;28;20029;-59
2021/04/20 11:01:49;;;;;;;9.82;3.53;;;;;;;;;;5015704;28;20040;-57
2021/04/20 11:04:19;;;;;;;10.85;3.50;;;;;;;;;;5015126;28;20049;-59
2021/04/20 11:07:04;;;;;;;9.77;3.63;;;;;;;;;;5016564;28;20037;-57
2021/04/20 11:09:30;;;;;;;8.48;3.30;;;;;;;;;;5016184;28;20514;-58
2021/04/20 11:11:56;;;;;;;11.00;3.90;;;;;;;;;;5016689;28;20049;-58
2021/04/20 11:14:42;;;;;;;17.20;4.10;;;;;;;;;;5015090;28;20052;-59
2021/04/20 11:17:13;;;;;;;10.27;4.25;;;;;;;;;;5017655;28;20087;-55
2021/04/20 11:19:44;;;;;;;9.48;3.83;;;;;;;;;;5016157;28;20052;-59
2021/04/20 11:22:12;;;;;;;9.00;3.55;;;;;;;;;;5016182;28;20807;-57
2021/04/20 11:24:41;;;;;;;8.38;3.75;;;;;;;;;;5016035;28;20057;-56
2021/04/20 11:27:09;;;;;;;20.40;3.90;;;;;;;;;;5030555;28;20445;-55
2021/04/20 11:29:48;;;;;;;14.27;4.40;;;;;;;;;;5013747;28;20042;-56
2021/04/20 11:32:19;;;;;;;10.13;3.40;;;;;;;;;;5019014;28;20525;-58
2021/04/20 11:34:46;;;;;;;13.63;3.08;;;;;;;;;;5017143;28;20034;-54
2021/04/20 11:37:18;;;;;;;7.70;3.30;;;;;;;;;;5021622;28;20048;-55
2021/04/20 11:39:50;;;;;;;8.18;3.15;;;;;;;;;;5020591;28;20033;-57
2021/04/20 11:42:29;;;;;;;12.07;3.17;;;;;;;;;;5019256;28;20053;-60
2021/04/20 11:44:55;;;;;;;12.65;2.97;;;;;;;;;;5033182;28;20053;-58
2021/04/20 11:47:21;;;;;;;8.50;3.35;;;;;;;;;;5019228;28;20176;-59
2021/04/20 11:49:52;;;;;;;8.18;3.15;;;;;;;;;;5019978;28;20107;-59
2021/04/20 11:52:22;;;;;;;6.25;2.75;;;;;;;;;;5018319;28;20045;-59
2021/04/20 11:54:54;;;;;;;10.35;3.38;;;;;;;;;;5008281;28;20041;-56
2021/04/20 11:57:20;;;;;;;10.00;3.13;;;;;;;;;;5020055;28;20038;-56
2021/04/20 11:59:47;;;;;;;11.82;3.35;;;;;;;;;;5020554;28;20052;-58
2021/04/20 12:02:15;;;;;;;11.68;3.00;;;;;;;;;;5000046;28;20033;-58
2021/04/20 12:04:46;;;;;;;6.95;3.20;;;;;;;;;;5019028;28;20138;-57
2021/04/20 12:07:12;;;;;;;10.40;3.72;;;;;;;;;;5019403;28;20429;-58
2021/04/20 12:09:39;;;;;;;13.10;3.78;;;;;;;;;;5018339;28;20052;-58
2021/04/20 12:12:05;;;;;;;7.43;3.30;;;;;;;;;;5018128;28;20526;-56
2021/04/20 12:14:35;;;;;;;11.73;3.38;;;;;;;;;;5018226;28;20065;-57
2021/04/20 12:17:01;;;;;;;10.18;4.43;;;;;;;;;;5033789;28;20911;-56
2021/04/20 12:19:28;;;;;;;11.98;3.20;;;;;;;;;;5019029;28;20045;-58
2021/04/20 12:21:57;;;;;;;12.50;3.67;;;;;;;;;;5019514;28;20566;-58
2021/04/20 12:24:25;;;;;;;7.80;3.03;;;;;;;;;;5018959;28;20080;-58
2021/04/20 12:26:53;;;;;;;9.88;3.03;;;;;;;;;;5034094;28;20586;-57
2021/04/20 12:29:20;;;;;;;14.20;3.70;;;;;;;;;;5021762;28;20509;-58
2021/04/20 12:31:47;;;;;;;10.27;3.35;;;;;;;;;;5021678;28;20461;-55
2021/04/20 12:34:13;;;;;;;12.93;3.05;;;;;;;;;;5019843;28;20038;-56
2021/04/20 12:36:39;;;;;;;11.90;3.67;;;;;;;;;;5021285;28;20172;-56
2021/04/20 12:39:09;;;;;;;15.77;3.20;;;;;;;;;;5022523;28;20053;-56
2021/04/20 12:41:36;;;;;;;12.40;3.72;;;;;;;;;;5019761;28;20049;-58
2021/04/20 12:44:04;;;;;;;12.45;3.65;;;;;;;;;;5026813;28;20045;-58
2021/04/20 12:46:31;;;;;;;19.67;4.47;;;;;;;;;;5019140;28;21814;-58
2021/04/20 12:49:01;;;;;;;19.15;3.88;;;;;;;;;;5019421;28;20048;-58
2021/04/20 12:51:30;;;;;;;17.13;3.85;;;;;;;;;;5018974;28;20034;-56
2021/04/20 12:53:57;;;;;;;14.25;3.85;;;;;;;;;;5019132;28;20458;-58
2021/04/20 12:56:28;;;;;;;16.20;4.57;;;;;;;;;;5012106;28;20103;-56
2021/04/20 12:58:55;;;;;;;18.73;3.85;;;;;;;;;;5018738;28;20177;-57
2021/04/20 13:01:22;;;;;;;10.80;3.90;;;;;;;;;;5017876;28;20038;-57
2021/04/20 13:03:49;;;;;;;13.43;3.97;;;;;;;;;;5013708;28;20037;-56
2021/04/20 13:06:16;;;;;;;12.80;3.90;;;;;;;;;;5029546;28;20099;-59
2021/04/20 13:08:43;;;;;;;16.17;4.18;;;;;;;;;;5017853;28;20053;-59
2021/04/20 13:11:09;;;;;;;17.38;3.75;;;;;;;;;;5019135;28;20033;-58
2021/04/20 13:13:35;;;;;;;9.13;3.90;;;;;;;;;;5017081;28;20041;-58
2021/04/20 13:16:03;;;;;;;13.80;3.35;;;;;;;;;;5033661;28;20033;-57
2021/04/20 13:18:30;;;;;;;16.35;3.85;;;;;;;;;;5018681;28;20129;-57
2021/04/20 13:21:01;;;;;;;17.83;4.05;;;;;;;;;;5015405;28;20037;-58
2021/04/20 13:23:33;;;;;;;14.25;3.80;;;;;;;;;;5017437;28;20782;-57
2021/04/20 13:26:09;;;;;;;18.52;4.40;;;;;;;;;;5018335;28;20064;-58
2021/04/20 13:28:35;;;;;;;18.52;4.40;;;;;;;;;;5018598;28;20072;-58
2021/04/20 13:31:02;;;;;;;11.40;3.90;;;;;;;;;;5017717;28;20132;-58
2021/04/20 13:33:29;;;;;;;12.80;3.83;;;;;;;;;;5016960;28;20073;-56
2021/04/20 13:35:55;;;;;;;15.40;3.88;;;;;;;;;;5018233;28;20037;-56
2021/04/20 13:38:23;;;;;;;14.82;3.65;;;;;;;;;;5017941;28;20037;-58
2021/04/20 13:40:49;;;;;;;8.98;3.72;;;;;;;;;;5018868;28;20044;-58
2021/04/20 13:43:16;;;;;;;10.35;3.17;;;;;;;;;;5020237;28;20046;-57
2021/04/20 13:45:44;;;;;;;11.25;3.58;;;;;;;;;;5020658;28;20585;-57
2021/04/20 13:48:10;;;;;;;8.25;3.03;;;;;;;;;;5021445;28;20061;-56
2021/04/20 13:50:42;;;;;;;12.45;3.30;;;;;;;;;;5021471;28;20065;-55
2021/04/20 13:53:12;;;;;;;10.43;2.55;;;;;;;;;;5020837;28;20089;-59
2021/04/20 13:55:39;;;;;;;8.38;3.63;;;;;;;;;;5017870;28;20484;-57
2021/04/20 13:58:35;;;;;;;9.98;3.15;;;;;;;;;;5018381;28;20550;-56
2021/04/20 14:01:02;;;;;;;7.60;3.55;;;;;;;;;;5011911;28;20033;-57
2021/04/20 14:03:29;;;;;;;7.95;3.40;;;;;;;;;;5015987;28;20033;-58
2021/04/20 14:05:56;;;;;;;9.15;3.90;;;;;;;;;;5014175;28;20064;-57
2021/04/20 14:08:31;;;;;;;20.63;3.78;;;;;;;;;;5017317;28;20042;-56
2021/04/20 14:10:58;;;;;;;8.38;3.20;;;;;;;;;;5018133;28;20398;-54
2021/04/20 14:13:25;;;;;;;12.45;4.07;;;;;;;;;;5031338;28;20038;-57
2021/04/20 14:15:53;;;;;;;6.25;3.00;;;;;;;;;;5016552;28;20643;-59
2021/04/20 14:18:22;;;;;;;11.90;3.38;;;;;;;;;;5016827;28;20029;-57
2021/04/20 14:20:48;;;;;;;7.90;3.17;;;;;;;;;;5013840;28;21004;-58
2021/04/20 14:23:15;;;;;;;9.00;3.30;;;;;;;;;;5018434;28;20075;-57
2021/04/20 14:25:51;;;;;;;9.02;3.53;;;;;;;;;;5019901;28;20041;-57
2021/04/20 14:28:29;;;;;;;11.13;2.95;;;;;;;;;;5018587;28;20045;-59
2021/04/20 14:30:56;;;;;;;8.45;2.83;;;;;;;;;;5003075;28;20082;-59
2021/04/20 14:33:44;;;;;;;13.43;3.60;;;;;;;;;;5032803;28;20506;-57
2021/04/20 14:36:14;;;;;;;7.47;3.47;;;;;;;;;;5015641;28;20042;-58
2021/04/20 14:38:41;;;;;;;7.03;3.83;;;;;;;;;;5026731;28;20037;-58
2021/04/20 14:41:12;;;;;;;7.28;3.38;;;;;;;;;;5017869;28;20065;-57
2021/04/20 14:43:41;;;;;;;8.18;3.55;;;;;;;;;;5015413;28;20409;-58
2021/04/20 14:46:09;;;;;;;8.90;3.22;;;;;;;;;;5016934;28;20076;-57
2021/04/20 14:48:36;;;;;;;9.95;3.42;;;;;;;;;;5016645;28;20040;-59
2021/04/20 14:51:02;;;;;;;11.45;3.13;;;;;;;;;;5017377;28;20064;-59